createdAt,value
2023-03-02T00:00:10.776Z,5.31
2023-03-02T00:01:10.833Z,4.81
2023-03-02T00:02:10.906Z,5.30
2023-03-02T00:03:10.971Z,5.36
2023-03-02T00:04:11.041Z,5.29
2023-03-02T00:05:11.038Z,5.33
2023-03-02T00:06:11.090Z,6.04
2023-03-02T00:07:11.135Z,5.11
2023-03-02T00:08:11.169Z,5.33
2023-03-02T00:09:11.243Z,5.20
2023-03-02T00:10:11.258Z,5.03
2023-03-02T00:11:11.336Z,4.93
2023-03-02T00:12:11.369Z,5.36
2023-03-02T00:13:11.402Z,5.17
2023-03-02T00:14:11.499Z,5.70
2023-03-02T00:15:11.531Z,5.54
2023-03-02T00:16:11.717Z,5.23
2023-03-02T00:17:11.690Z,5.69
2023-03-02T00:18:11.676Z,5.38
2023-03-02T00:19:11.730Z,5.51
2023-03-02T00:20:11.882Z,5.86
2023-03-02T00:21:11.819Z,5.14
2023-03-02T00:22:11.860Z,5.61
2023-03-02T00:23:11.908Z,5.34
2023-03-02T00:24:11.967Z,5.38
2023-03-02T00:25:12.031Z,5.72
2023-03-02T00:26:12.110Z,5.41
2023-03-02T00:27:12.095Z,5.29
2023-03-02T00:28:12.173Z,5.55
2023-03-02T00:29:12.212Z,5.51
2023-03-02T00:30:12.365Z,5.59
2023-03-02T00:31:12.361Z,5.82
2023-03-02T00:32:12.346Z,5.24
2023-03-02T00:33:12.388Z,5.45
2023-03-02T00:34:12.447Z,5.74
2023-03-02T00:35:12.516Z,6.13
2023-03-02T00:36:12.524Z,5.42
2023-03-02T00:37:12.571Z,5.43
2023-03-02T00:38:12.656Z,5.40
2023-03-02T00:39:12.638Z,5.03
2023-03-02T00:40:12.698Z,5.20
2023-03-02T00:41:12.695Z,4.46
2023-03-02T00:42:12.773Z,5.28
2023-03-02T00:43:12.757Z,5.70
2023-03-02T00:44:12.788Z,5.52
2023-03-02T00:45:12.809Z,5.44
2023-03-02T00:46:12.898Z,5.53
2023-03-02T00:47:12.854Z,5.39
2023-03-02T00:48:12.934Z,5.26
2023-03-02T00:49:12.912Z,5.13
2023-03-02T00:50:12.946Z,5.49
2023-03-02T00:51:12.926Z,5.22
2023-03-02T00:52:12.938Z,5.63
2023-03-02T00:53:12.957Z,5.65
2023-03-02T00:54:12.990Z,5.12
2023-03-02T00:55:12.966Z,5.84
2023-03-02T00:56:12.978Z,5.93
2023-03-02T00:57:12.978Z,5.27
2023-03-02T00:58:12.978Z,5.15
2023-03-02T00:59:12.988Z,5.12
2023-03-02T01:00:12.958Z,5.02
2023-03-02T01:01:13.015Z,5.42
2023-03-02T02:09:16.314Z,5.77
2023-03-02T02:10:16.400Z,6.04
2023-03-02T02:11:16.447Z,5.78
2023-03-02T02:12:16.501Z,6.31
2023-03-02T02:13:16.589Z,5.49
2023-03-02T02:14:16.614Z,5.71
2023-03-02T02:15:16.666Z,5.22
2023-03-02T02:16:16.720Z,4.94
2023-03-02T02:18:16.831Z,5.30
2023-03-02T03:11:19.067Z,5.94
2023-03-02T03:12:19.087Z,5.89
2023-03-02T03:13:19.136Z,5.71
2023-03-02T03:14:19.160Z,5.48
2023-03-02T03:15:19.201Z,5.68
2023-03-02T03:16:19.234Z,5.83
2023-03-02T03:17:19.277Z,5.72
2023-03-02T03:18:19.271Z,5.75
2023-03-02T03:19:19.332Z,5.98
2023-03-02T03:20:19.321Z,5.48
2023-03-02T03:21:19.365Z,5.35
2023-03-02T03:22:19.401Z,5.33
2023-03-02T03:23:19.411Z,6.48
2023-03-02T03:24:19.459Z,6.02
2023-03-02T03:25:19.488Z,5.55
2023-03-02T03:26:19.527Z,6.18
2023-03-02T03:27:19.559Z,5.50
2023-03-02T03:28:19.569Z,5.71
2023-03-02T03:29:19.615Z,6.38
2023-03-02T03:30:19.603Z,6.01
2023-03-02T03:31:19.727Z,6.49
2023-03-02T03:32:19.772Z,5.48
2023-03-02T03:33:19.739Z,5.46
2023-03-02T03:34:19.701Z,5.51
2023-03-02T03:35:19.781Z,5.75
2023-03-02T03:36:19.751Z,5.73
2023-03-02T03:37:19.800Z,5.54
2023-03-02T03:38:19.764Z,6.59
2023-03-02T03:39:19.820Z,5.51
2023-03-02T03:40:19.796Z,5.44
2023-03-02T03:41:19.886Z,5.90
2023-03-02T03:42:19.929Z,5.12
2023-03-02T03:43:19.909Z,6.55
2023-03-02T03:44:19.991Z,6.57
2023-03-02T03:45:19.998Z,4.96
2023-03-02T03:46:20.054Z,6.00
2023-03-02T03:47:20.163Z,5.98
2023-03-02T03:48:20.140Z,5.85
2023-03-02T03:49:20.158Z,5.08
2023-03-02T03:50:20.187Z,5.80
2023-03-02T03:51:20.241Z,5.68
2023-03-02T03:52:20.270Z,5.87
2023-03-02T03:53:20.320Z,5.33
2023-03-02T03:54:20.394Z,5.75
2023-03-02T03:55:20.390Z,6.16
2023-03-02T03:56:20.441Z,5.87
2023-03-02T03:57:20.484Z,5.90
2023-03-02T03:58:20.572Z,5.65
2023-03-02T03:59:20.561Z,6.09
2023-03-02T04:00:20.638Z,5.61
2023-03-02T04:01:21.550Z,5.93
2023-03-02T04:02:20.750Z,5.73
2023-03-02T04:03:20.747Z,5.74
2023-03-02T04:04:20.823Z,5.94
2023-03-02T04:05:20.867Z,5.68
2023-03-02T04:06:20.923Z,5.56
2023-03-02T04:07:20.993Z,6.23
2023-03-02T04:08:21.000Z,5.93
2023-03-02T04:09:21.051Z,5.83
2023-03-02T04:10:21.122Z,6.35
2023-03-02T04:11:21.148Z,5.31
2023-03-02T04:12:21.212Z,5.01
2023-03-02T04:13:21.269Z,6.31
2023-03-02T04:14:21.316Z,5.37
2023-03-02T04:15:21.385Z,5.41
2023-03-02T04:16:21.424Z,5.53
2023-03-02T04:17:21.431Z,6.07
2023-03-02T04:18:21.510Z,5.15
2023-03-02T04:19:21.578Z,5.60
2023-03-02T04:20:21.618Z,5.41
2023-03-02T04:21:21.708Z,5.47
2023-03-02T04:22:21.737Z,5.54
2023-03-02T04:23:21.805Z,5.31
2023-03-02T04:24:21.877Z,5.42
2023-03-02T04:25:21.932Z,6.12
2023-03-02T04:26:21.982Z,5.42
2023-03-02T04:27:22.039Z,5.66
2023-03-02T04:28:22.110Z,5.64
2023-03-02T04:29:22.196Z,5.54
2023-03-02T04:30:22.220Z,5.33
2023-03-02T04:31:22.318Z,5.51
2023-03-02T04:32:22.401Z,5.71
2023-03-02T04:33:22.370Z,5.42
2023-03-02T04:34:22.448Z,6.00
2023-03-02T04:35:22.663Z,5.44
2023-03-02T04:36:22.579Z,6.05
2023-03-02T04:37:22.607Z,6.14
2023-03-02T04:38:22.683Z,6.16
2023-03-02T04:39:22.737Z,4.91
2023-03-02T04:40:22.821Z,5.50
2023-03-02T04:41:22.845Z,5.53
2023-03-02T04:42:22.888Z,5.02
2023-03-02T04:43:22.932Z,5.46
2023-03-02T04:44:23.008Z,5.66
2023-03-02T04:45:23.053Z,5.70
2023-03-02T04:46:23.209Z,5.74
2023-03-02T04:47:23.113Z,6.29
2023-03-02T04:48:23.165Z,5.57
2023-03-02T04:49:23.201Z,5.33
2023-03-02T04:50:23.260Z,5.73
2023-03-02T04:51:23.291Z,5.86
2023-03-02T04:52:23.356Z,5.62
2023-03-02T04:53:23.400Z,5.37
2023-03-02T04:54:23.470Z,6.45
2023-03-02T04:55:23.531Z,6.19
2023-03-02T04:56:23.589Z,5.71
2023-03-02T04:57:23.633Z,5.87
2023-03-02T04:58:23.692Z,5.49
2023-03-02T04:59:23.766Z,5.95
2023-03-02T05:00:23.768Z,5.04
2023-03-02T05:01:23.814Z,5.51
2023-03-02T05:02:23.957Z,6.74
2023-03-02T05:03:23.934Z,5.76
2023-03-02T05:04:24.202Z,5.77
2023-03-02T05:05:24.052Z,6.30
2023-03-02T05:06:24.109Z,5.47
2023-03-02T05:07:24.146Z,5.58
2023-03-02T05:08:24.230Z,5.72
2023-03-02T05:09:24.294Z,5.63
2023-03-02T05:12:24.419Z,6.36
2023-03-02T05:13:24.504Z,6.39
2023-03-02T05:14:24.576Z,6.20
2023-03-02T05:15:24.650Z,5.65
2023-03-02T05:16:24.707Z,6.17
2023-03-02T05:17:24.701Z,6.23
2023-03-02T05:18:24.777Z,5.82
2023-03-02T05:19:24.878Z,5.72
2023-03-02T05:20:24.901Z,5.57
2023-03-02T05:21:24.975Z,5.69
2023-03-02T05:22:25.031Z,5.43
2023-03-02T05:23:25.935Z,5.80
2023-03-02T05:43:26.305Z,6.31
2023-03-02T05:44:26.348Z,6.41
2023-03-02T05:45:26.421Z,5.57
2023-03-02T05:46:26.501Z,6.62
2023-03-02T05:47:26.583Z,6.10
2023-03-02T05:48:26.585Z,5.36
2023-03-02T05:49:26.676Z,5.85
2023-03-02T05:50:26.707Z,6.26
2023-03-02T05:51:26.788Z,5.81
2023-03-02T05:52:26.871Z,5.71
2023-03-02T05:53:26.929Z,6.03
2023-03-02T05:54:26.956Z,5.94
2023-03-02T05:55:27.043Z,5.97
2023-03-02T05:56:27.120Z,5.80
2023-03-02T05:57:27.152Z,6.05
2023-03-02T05:58:27.213Z,5.93
2023-03-02T05:59:27.276Z,6.07
2023-03-02T06:01:46.262Z,5.94
2023-03-02T06:02:46.311Z,5.89
2023-03-02T06:03:46.347Z,6.20
2023-03-02T06:04:46.437Z,5.89
2023-03-02T06:05:46.457Z,6.53
2023-03-02T06:06:46.515Z,5.66
2023-03-02T06:07:46.602Z,5.91
2023-03-02T06:08:46.606Z,6.08
2023-03-02T06:09:46.678Z,5.82
2023-03-02T06:10:46.782Z,6.22
2023-03-02T06:11:46.765Z,5.61
2023-03-02T06:12:46.826Z,6.14
2023-03-02T06:13:46.901Z,5.49
2023-03-02T06:14:46.977Z,6.03
2023-03-02T06:15:47.037Z,5.80
2023-03-02T06:16:47.174Z,5.35
2023-03-02T06:17:47.090Z,6.33
2023-03-02T06:18:47.148Z,6.48
2023-03-02T06:19:47.233Z,5.59
2023-03-02T06:20:47.244Z,6.27
2023-03-02T06:21:47.351Z,6.29
2023-03-02T06:22:47.378Z,5.68
2023-03-02T06:23:47.418Z,6.41
2023-03-02T06:24:47.470Z,5.41
2023-03-02T06:25:47.542Z,6.23
2023-03-02T06:26:47.533Z,5.92
2023-03-02T06:27:47.616Z,5.84
2023-03-02T06:28:52.684Z,6.31
2023-03-02T06:29:48.657Z,6.06
2023-03-02T06:30:47.683Z,5.93
2023-03-02T06:31:47.751Z,5.74
2023-03-02T06:32:47.750Z,6.05
2023-03-02T06:33:47.666Z,6.18
2023-03-02T06:34:47.642Z,6.13
2023-03-02T06:35:48.010Z,6.47
2023-03-02T06:36:47.609Z,8.70
2023-03-02T06:37:47.649Z,13.28
2023-03-02T06:38:47.708Z,15.98
2023-03-02T06:39:47.616Z,17.21
2023-03-02T06:40:47.896Z,18.66
2023-03-02T06:41:47.712Z,19.16
2023-03-02T06:42:47.921Z,18.36
2023-03-02T06:43:47.809Z,19.67
2023-03-02T06:44:47.846Z,17.50
2023-03-02T06:45:55.484Z,18.95
2023-03-02T06:46:47.907Z,20.33
2023-03-02T06:47:47.888Z,20.43
2023-03-02T06:48:47.910Z,20.14
2023-03-02T06:49:47.947Z,20.03
2023-03-02T06:50:47.914Z,20.35
2023-03-02T06:51:47.855Z,18.66
2023-03-02T06:52:47.884Z,20.74
2023-03-02T06:53:47.865Z,19.53
2023-03-02T06:54:47.837Z,19.93
2023-03-02T06:55:47.916Z,20.65
2023-03-02T06:56:47.895Z,20.47
2023-03-02T06:57:47.827Z,18.65
2023-03-02T06:58:47.878Z,20.52
2023-03-02T06:59:47.920Z,20.26
2023-03-02T07:00:48.571Z,20.75
2023-03-02T07:01:47.902Z,19.51
2023-03-02T07:02:48.883Z,20.75
2023-03-02T07:03:47.902Z,20.37
2023-03-02T07:04:47.886Z,21.13
2023-03-02T07:05:47.861Z,21.91
2023-03-02T07:06:47.905Z,21.79
2023-03-02T07:07:47.842Z,21.42
2023-03-02T07:08:47.801Z,20.81
2023-03-02T07:09:47.728Z,20.55
2023-03-02T07:10:47.731Z,21.33
2023-03-02T07:11:47.830Z,20.54
2023-03-02T07:12:47.834Z,22.34
2023-03-02T07:13:47.768Z,22.19
2023-03-02T07:14:47.816Z,20.01
2023-03-02T07:15:47.713Z,21.55
2023-03-02T07:16:47.824Z,21.42
2023-03-02T07:17:47.799Z,21.29
2023-03-02T07:18:47.856Z,21.97
2023-03-02T07:19:48.459Z,21.93
2023-03-02T07:20:47.919Z,20.85
2023-03-02T07:21:47.907Z,21.89
2023-03-02T07:22:47.919Z,21.91
2023-03-02T07:23:47.957Z,21.27
2023-03-02T07:24:48.043Z,22.59
2023-03-02T07:25:48.093Z,21.28
2023-03-02T07:26:48.106Z,22.00
2023-03-02T07:27:48.171Z,22.03
2023-03-02T07:28:48.193Z,21.96
2023-03-02T07:29:48.280Z,21.60
2023-03-02T07:30:48.363Z,21.90
2023-03-02T07:31:48.356Z,21.74
2023-03-02T07:32:48.363Z,19.66
2023-03-02T07:33:48.407Z,20.52
2023-03-02T07:34:48.413Z,20.52
2023-03-02T07:35:48.993Z,19.97
2023-03-02T07:36:48.462Z,19.50
2023-03-02T07:37:48.464Z,17.42
2023-03-02T07:38:48.518Z,17.97
2023-03-02T07:39:48.546Z,18.75
2023-03-02T07:40:48.920Z,16.85
2023-03-02T07:41:48.671Z,17.39
2023-03-02T07:42:48.750Z,17.23
2023-03-02T07:43:48.727Z,17.86
2023-03-02T07:44:48.733Z,17.01
2023-03-02T07:45:49.039Z,17.80
2023-03-02T07:46:48.932Z,17.39
2023-03-02T07:47:48.861Z,17.12
2023-03-02T07:48:48.880Z,17.11
2023-03-02T07:49:48.865Z,17.92
2023-03-02T07:50:48.972Z,16.15
2023-03-02T07:51:49.704Z,15.85
2023-03-02T07:52:48.950Z,15.12
2023-03-02T07:53:49.210Z,15.99
2023-03-02T07:54:49.144Z,15.71
2023-03-02T07:55:49.175Z,15.14
2023-03-02T07:56:49.178Z,14.70
2023-03-02T07:57:49.293Z,14.02
2023-03-02T07:58:49.300Z,14.64
2023-03-02T07:59:49.338Z,14.32
2023-03-02T08:00:49.409Z,13.31
2023-03-02T08:01:49.531Z,14.29
2023-03-02T08:02:49.527Z,13.66
2023-03-02T08:03:49.499Z,13.88
2023-03-02T08:04:49.605Z,13.86
2023-03-02T08:05:49.593Z,14.19
2023-03-02T08:06:49.634Z,14.36
2023-03-02T08:07:49.683Z,14.80
2023-03-02T08:08:49.676Z,13.11
2023-03-02T08:09:49.675Z,14.35
2023-03-02T08:10:49.696Z,12.94
2023-03-02T08:11:49.758Z,13.30
2023-03-02T08:12:49.749Z,15.29
2023-03-02T08:13:49.712Z,13.39
2023-03-02T08:14:49.754Z,13.04
2023-03-02T08:15:49.878Z,13.37
2023-03-02T08:16:50.019Z,12.50
2023-03-02T08:17:49.865Z,13.74
2023-03-02T08:18:49.950Z,13.58
2023-03-02T08:19:49.879Z,12.58
2023-03-02T08:20:49.860Z,12.51
2023-03-02T08:21:49.907Z,12.40
2023-03-02T08:22:49.951Z,12.53
2023-03-02T08:23:50.106Z,13.54
2023-03-02T08:24:50.051Z,12.87
2023-03-02T08:25:50.137Z,14.02
2023-03-02T08:26:50.203Z,13.24
2023-03-02T08:27:50.258Z,12.76
2023-03-02T08:28:50.300Z,14.08
2023-03-02T08:29:50.325Z,14.19
2023-03-02T08:30:50.405Z,12.75
2023-03-02T08:31:51.092Z,12.85
2023-03-02T08:32:50.550Z,12.83
2023-03-02T08:33:50.639Z,13.34
2023-03-02T08:34:50.638Z,12.25
2023-03-02T08:35:52.744Z,13.67
2023-03-02T08:36:50.759Z,14.00
2023-03-02T08:37:50.853Z,13.80
2023-03-02T08:38:50.883Z,14.07
2023-03-02T08:39:50.951Z,12.31
2023-03-02T08:40:51.021Z,14.88
2023-03-02T08:41:51.039Z,15.49
2023-03-02T08:42:51.075Z,15.55
2023-03-02T08:43:51.189Z,15.01
2023-03-02T08:44:51.187Z,16.50
2023-03-02T08:45:51.278Z,16.32
2023-03-02T08:46:51.192Z,16.08
2023-03-02T08:47:51.280Z,17.21
2023-03-02T08:48:51.312Z,16.16
2023-03-02T08:49:51.282Z,16.42
2023-03-02T08:50:51.336Z,18.47
2023-03-02T08:51:51.446Z,17.93
2023-03-02T08:52:51.304Z,16.01
2023-03-02T08:53:51.336Z,18.39
2023-03-02T08:54:51.444Z,17.10
2023-03-02T08:55:51.393Z,16.35
2023-03-02T08:56:51.437Z,16.66
2023-03-02T08:57:53.021Z,16.52
2023-03-02T08:58:51.449Z,15.27
2023-03-02T08:59:51.414Z,16.71
2023-03-02T09:00:51.556Z,17.07
2023-03-02T09:01:51.928Z,16.38
2023-03-02T09:02:51.487Z,16.79
2023-03-02T09:03:51.457Z,16.54
2023-03-02T09:04:51.460Z,17.26
2023-03-02T09:05:51.442Z,17.13
2023-03-02T09:06:51.443Z,15.78
2023-03-02T09:07:51.479Z,15.76
2023-03-02T09:08:51.569Z,16.02
2023-03-02T09:09:51.670Z,15.58
2023-03-02T09:10:51.678Z,16.33
2023-03-02T09:11:51.957Z,15.86
2023-03-02T09:12:51.716Z,15.15
2023-03-02T09:13:51.697Z,16.59
2023-03-02T09:14:51.916Z,16.69
2023-03-02T09:15:51.880Z,15.26
2023-03-02T09:16:52.069Z,17.11
2023-03-02T09:17:51.999Z,15.87
2023-03-02T09:18:52.106Z,15.23
2023-03-02T09:19:52.112Z,14.85
2023-03-02T09:20:52.168Z,14.95
2023-03-02T09:21:52.269Z,15.36
2023-03-02T09:22:52.261Z,15.38
2023-03-02T09:23:52.376Z,16.23
2023-03-02T09:24:52.432Z,14.03
2023-03-02T09:25:52.456Z,14.11
2023-03-02T09:26:52.969Z,15.04
2023-03-02T09:27:52.615Z,14.58
2023-03-02T09:28:52.687Z,15.18
2023-03-02T09:29:52.735Z,15.59
2023-03-02T09:30:52.833Z,14.08
2023-03-02T09:31:53.102Z,14.69
2023-03-02T09:32:53.024Z,13.36
2023-03-02T09:33:53.020Z,13.66
2023-03-02T09:34:53.072Z,14.22
2023-03-02T09:35:53.136Z,12.89
2023-03-02T09:36:53.184Z,14.03
2023-03-02T09:37:53.276Z,12.84
2023-03-02T09:38:53.316Z,13.36
2023-03-02T09:39:53.409Z,12.41
2023-03-02T09:40:53.372Z,15.74
2023-03-02T09:41:53.444Z,16.68
2023-03-02T09:42:53.435Z,17.38
2023-03-02T09:43:53.407Z,14.62
2023-03-02T09:44:53.513Z,16.01
2023-03-02T09:45:53.576Z,14.18
2023-03-02T09:46:53.530Z,14.27
2023-03-02T09:47:53.544Z,15.43
2023-03-02T09:48:53.590Z,15.82
2023-03-02T09:49:53.619Z,15.37
2023-03-02T09:50:53.618Z,16.02
2023-03-02T09:51:53.977Z,22.77
2023-03-02T09:52:53.706Z,22.51
2023-03-02T09:53:53.739Z,18.87
2023-03-02T09:54:53.710Z,17.98
2023-03-02T09:55:53.738Z,16.67
2023-03-02T09:56:54.002Z,18.38
2023-03-02T09:57:53.735Z,16.84
2023-03-02T09:58:53.764Z,17.15
2023-03-02T09:59:53.753Z,14.33
2023-03-02T10:00:53.801Z,14.21
2023-03-02T10:01:53.875Z,14.40
2023-03-02T10:02:53.990Z,14.52
2023-03-02T10:03:54.088Z,13.94
2023-03-02T10:04:54.014Z,14.91
2023-03-02T10:05:54.480Z,16.74
2023-03-02T10:06:54.621Z,19.97
2023-03-02T10:07:54.432Z,18.76
2023-03-02T10:08:54.470Z,21.47
2023-03-02T10:09:54.298Z,20.83
2023-03-02T10:10:54.193Z,20.78
2023-03-02T10:11:54.550Z,19.70
2023-03-02T10:12:54.218Z,15.39
2023-03-02T10:13:54.482Z,13.77
2023-03-02T10:14:54.469Z,14.61
2023-03-02T10:15:54.876Z,13.98
2023-03-02T10:16:55.101Z,14.20
2023-03-02T10:17:54.427Z,13.04
2023-03-02T10:18:54.989Z,12.11
2023-03-02T10:19:54.565Z,14.29
2023-03-02T10:20:55.317Z,17.58
2023-03-02T10:21:54.485Z,16.74
2023-03-02T10:22:55.013Z,15.00
2023-03-02T10:23:54.463Z,16.17
2023-03-02T10:24:54.482Z,14.18
2023-03-02T10:25:54.488Z,20.54
2023-03-02T10:26:54.532Z,19.56
2023-03-02T10:27:55.025Z,17.41
2023-03-02T10:28:54.902Z,17.69
2023-03-02T10:29:54.531Z,16.97
2023-03-02T10:30:54.667Z,17.75
2023-03-02T10:31:54.625Z,16.11
2023-03-02T10:32:54.611Z,19.12
2023-03-02T10:33:54.624Z,19.19
2023-03-02T10:34:54.572Z,18.94
2023-03-02T10:35:54.668Z,17.19
2023-03-02T10:36:54.598Z,19.34
2023-03-02T10:37:54.645Z,17.86
2023-03-02T10:38:54.647Z,19.86
2023-03-02T10:39:54.639Z,21.43
2023-03-02T10:40:54.605Z,16.04
2023-03-02T10:41:54.694Z,17.40
2023-03-02T10:42:54.970Z,15.86
2023-03-02T10:43:54.752Z,15.95
2023-03-02T10:44:54.747Z,17.12
2023-03-02T10:45:54.820Z,17.10
2023-03-02T10:46:54.856Z,15.87
2023-03-02T10:47:54.915Z,15.93
2023-03-02T10:48:55.424Z,15.50
2023-03-02T10:49:54.925Z,17.78
2023-03-02T10:50:54.957Z,14.96
2023-03-02T10:51:54.931Z,14.40
2023-03-02T10:52:59.893Z,13.85
2023-03-02T10:53:55.981Z,14.32
2023-03-02T10:54:54.949Z,15.65
2023-03-02T10:55:54.976Z,14.19
2023-03-02T10:56:54.987Z,14.17
2023-03-02T10:57:54.927Z,14.28
2023-03-02T10:58:56.451Z,14.31
2023-03-02T10:59:54.951Z,14.10
2023-03-02T11:00:54.902Z,13.58
2023-03-02T11:01:54.956Z,13.84
2023-03-02T11:02:55.054Z,12.31
2023-03-02T11:03:54.916Z,13.22
2023-03-02T11:04:57.339Z,12.35
2023-03-02T11:05:54.880Z,11.55
2023-03-02T11:06:54.901Z,11.36
2023-03-02T11:07:54.888Z,11.96
2023-03-02T11:08:54.869Z,11.73
2023-03-02T11:09:54.864Z,11.65
2023-03-02T11:10:56.939Z,11.58
2023-03-02T11:11:55.930Z,11.87
2023-03-02T11:12:54.830Z,10.72
2023-03-02T11:13:54.839Z,11.30
2023-03-02T11:14:54.840Z,10.68
2023-03-02T11:15:54.894Z,10.85
2023-03-02T11:16:54.811Z,10.04
2023-03-02T11:17:55.020Z,10.36
2023-03-02T11:18:54.817Z,9.84
2023-03-02T11:19:54.824Z,10.12
2023-03-02T11:20:54.791Z,9.83
2023-03-02T11:21:54.798Z,10.50
2023-03-02T11:22:54.801Z,9.74
2023-03-02T11:23:54.813Z,10.58
2023-03-02T11:24:54.755Z,9.38
2023-03-02T11:25:54.765Z,9.40
2023-03-02T11:26:54.842Z,9.89
2023-03-02T11:27:54.829Z,8.81
2023-03-02T11:28:54.952Z,9.35
2023-03-02T11:31:55.075Z,9.74
2023-03-02T11:32:55.514Z,8.88
2023-03-02T11:33:57.910Z,8.71
2023-03-02T11:34:55.201Z,9.11
2023-03-02T11:35:55.041Z,10.11
2023-03-02T11:36:55.078Z,9.65
2023-03-02T11:37:55.010Z,9.30
2023-03-02T11:38:55.050Z,9.04
2023-03-02T11:39:56.057Z,9.11
2023-03-02T11:40:54.973Z,9.28
2023-03-02T11:41:55.025Z,8.80
2023-03-02T11:42:54.987Z,9.45
2023-03-02T11:43:54.938Z,8.74
2023-03-02T11:44:54.955Z,10.16
2023-03-02T11:45:55.466Z,9.76
2023-03-02T11:46:55.395Z,9.67
2023-03-02T11:48:55.465Z,9.82
2023-03-02T11:51:58.311Z,8.91
2023-03-02T11:52:55.766Z,9.53
2023-03-02T11:53:55.039Z,9.29
2023-03-02T11:54:54.957Z,10.46
2023-03-02T11:55:54.933Z,9.23
2023-03-02T11:57:54.886Z,9.11
2023-03-02T11:58:54.848Z,9.67
2023-03-02T11:59:54.858Z,8.31
2023-03-02T12:00:54.867Z,9.59
2023-03-02T12:01:54.913Z,9.86
2023-03-02T12:02:54.825Z,9.89
2023-03-02T12:03:54.825Z,9.29
2023-03-02T12:05:54.796Z,9.60
2023-03-02T12:06:54.809Z,10.02
2023-03-02T12:07:54.811Z,10.09
2023-03-02T12:08:54.850Z,9.70
2023-03-02T12:09:54.824Z,10.20
2023-03-02T12:10:54.783Z,10.26
2023-03-02T12:11:54.777Z,11.36
2023-03-02T12:12:55.784Z,10.67
2023-03-02T12:17:54.732Z,9.98
2023-03-02T12:29:54.758Z,12.47
2023-03-02T12:30:54.711Z,12.93
2023-03-02T12:31:54.865Z,14.67
2023-03-02T13:22:56.347Z,13.01
2023-03-02T13:23:56.378Z,12.19
2023-03-02T13:24:56.405Z,10.79
2023-03-02T13:25:56.434Z,10.61
2023-03-02T13:26:56.431Z,11.13
2023-03-02T13:27:56.481Z,7.66
2023-03-02T13:28:56.515Z,8.60
2023-03-02T13:29:56.572Z,9.29
2023-03-02T13:30:56.676Z,8.99
2023-03-02T13:31:56.568Z,9.71
2023-03-02T13:32:56.596Z,9.13
2023-03-02T13:33:56.692Z,9.13
2023-03-02T13:34:56.716Z,9.06
2023-03-02T13:35:56.748Z,8.21
2023-03-02T13:36:56.789Z,7.99
2023-03-02T13:37:56.915Z,8.52
2023-03-02T13:38:56.875Z,8.17
2023-03-02T13:39:56.946Z,8.43
2023-03-02T13:40:56.914Z,7.86
2023-03-02T13:41:56.954Z,8.07
2023-03-02T13:42:56.987Z,8.17
2023-03-02T13:43:56.966Z,8.06
2023-03-02T13:44:57.003Z,8.81
2023-03-02T13:45:57.027Z,7.38
2023-03-02T13:46:57.013Z,7.17
2023-03-02T13:47:57.026Z,6.72
2023-03-02T13:49:09.230Z,7.16
2023-03-02T13:49:58.082Z,7.38
2023-03-02T13:50:57.011Z,6.53
2023-03-02T13:51:57.028Z,7.74
2023-03-02T13:52:56.996Z,7.92
2023-03-02T13:53:57.008Z,7.06
2023-03-02T13:54:57.046Z,7.38
2023-03-02T13:55:56.970Z,6.90
2023-03-02T13:56:56.982Z,7.11
2023-03-02T13:57:56.974Z,6.91
2023-03-02T13:58:57.004Z,7.08
2023-03-02T13:59:56.970Z,7.32
2023-03-02T14:00:56.946Z,6.99
2023-03-02T14:01:56.947Z,7.35
2023-03-02T14:02:56.924Z,6.36
2023-03-02T14:03:57.480Z,7.04
2023-03-02T14:04:57.038Z,7.41
2023-03-02T14:05:56.925Z,6.44
2023-03-02T14:06:56.912Z,6.93
2023-03-02T14:07:56.881Z,7.09
2023-03-02T14:08:56.913Z,7.96
2023-03-02T14:09:57.686Z,7.77
2023-03-02T14:10:56.878Z,7.19
2023-03-02T14:11:56.879Z,6.63
2023-03-02T14:12:56.847Z,7.05
2023-03-02T14:13:56.861Z,6.21
2023-03-02T14:14:56.876Z,6.39
2023-03-02T14:15:56.944Z,6.73
2023-03-02T14:16:56.835Z,6.62
2023-03-02T14:17:56.816Z,5.91
2023-03-02T14:18:56.845Z,6.97
2023-03-02T14:19:56.852Z,6.18
2023-03-02T14:20:56.876Z,6.54
2023-03-02T14:21:56.868Z,7.10
2023-03-02T14:22:56.839Z,6.58
2023-03-02T14:23:56.831Z,6.18
2023-03-02T14:24:56.785Z,6.42
2023-03-02T14:25:56.810Z,6.21
2023-03-02T14:26:56.810Z,5.99
2023-03-02T14:27:56.781Z,6.24
2023-03-02T14:29:05.551Z,6.77
2023-03-02T14:29:57.819Z,6.66
2023-03-02T14:30:56.844Z,6.47
2023-03-02T14:31:56.875Z,6.24
2023-03-02T14:32:56.945Z,6.00
2023-03-02T14:33:57.322Z,6.80
2023-03-02T14:34:56.769Z,6.72
2023-03-02T14:35:56.899Z,6.12
2023-03-02T14:36:56.760Z,6.71
2023-03-02T14:37:56.753Z,6.40
2023-03-02T14:38:56.823Z,5.99
2023-03-02T14:39:57.458Z,6.21
2023-03-02T14:40:56.808Z,6.99
2023-03-02T14:41:57.061Z,6.70
2023-03-02T14:42:57.026Z,7.19
2023-03-02T14:43:56.787Z,5.74
2023-03-02T14:44:56.912Z,6.25
2023-03-02T14:45:56.772Z,5.62
2023-03-02T14:46:56.682Z,5.85
2023-03-02T14:47:56.932Z,6.23
2023-03-02T14:48:56.847Z,6.16
2023-03-02T14:49:56.724Z,5.88
2023-03-02T14:50:56.649Z,5.46
2023-03-02T14:51:56.858Z,5.96
2023-03-02T14:52:56.665Z,5.54
2023-03-02T14:53:56.984Z,5.55
2023-03-02T14:54:56.657Z,5.53
2023-03-02T14:55:56.677Z,5.25
2023-03-02T14:56:56.664Z,5.63
2023-03-02T14:57:56.644Z,6.17
2023-03-02T14:58:56.632Z,5.97
2023-03-02T14:59:56.647Z,5.97
2023-03-02T15:00:56.608Z,6.18
2023-03-02T15:01:58.534Z,6.06
2023-03-02T15:02:56.699Z,5.36
2023-03-02T15:03:56.601Z,5.79
2023-03-02T15:04:56.823Z,5.93
2023-03-02T15:06:01.164Z,5.05
2023-03-02T15:06:57.595Z,5.72
2023-03-02T15:07:58.454Z,5.31
2023-03-02T15:08:56.577Z,5.69
2023-03-02T15:09:56.577Z,5.49
2023-03-02T15:10:56.541Z,5.88
2023-03-02T15:11:56.504Z,5.53
2023-03-02T15:12:56.535Z,6.18
2023-03-02T15:13:56.526Z,5.73
2023-03-02T15:14:56.605Z,5.61
2023-03-02T15:15:56.557Z,5.25
2023-03-02T15:16:56.522Z,5.73
2023-03-02T15:17:56.483Z,5.44
2023-03-02T15:18:58.720Z,5.61
2023-03-02T15:19:56.476Z,4.97
2023-03-02T15:20:56.483Z,6.31
2023-03-02T15:21:56.487Z,5.40
2023-03-02T15:22:56.502Z,5.34
2023-03-02T15:23:56.525Z,5.46
2023-03-02T15:24:56.556Z,4.84
2023-03-02T15:25:56.507Z,5.46
2023-03-02T15:26:56.560Z,5.52
2023-03-02T15:27:56.544Z,5.80
2023-03-02T15:28:56.500Z,5.04
2023-03-02T15:29:57.086Z,5.40
2023-03-02T15:30:56.505Z,4.81
2023-03-02T15:31:56.639Z,5.60
2023-03-02T15:32:56.524Z,5.51
2023-03-02T15:33:56.511Z,5.59
2023-03-02T15:34:56.551Z,5.27
2023-03-02T15:35:57.146Z,5.51
2023-03-02T15:36:56.483Z,5.45
2023-03-02T15:37:56.497Z,5.23
2023-03-02T15:38:56.520Z,5.78
2023-03-02T15:39:56.540Z,5.49
2023-03-02T15:40:56.530Z,5.53
2023-03-02T15:41:56.487Z,5.96
2023-03-02T15:42:56.497Z,5.25
2023-03-02T15:43:56.485Z,5.76
2023-03-02T15:44:56.510Z,4.50
2023-03-02T15:45:56.481Z,5.59
2023-03-02T15:46:56.583Z,4.79
2023-03-02T15:47:56.471Z,5.24
2023-03-02T15:48:56.504Z,4.85
2023-03-02T15:49:56.513Z,5.70
2023-03-02T15:50:56.518Z,4.66
2023-03-02T15:51:56.497Z,5.40
2023-03-02T15:52:56.495Z,4.89
2023-03-02T15:53:56.495Z,5.53
2023-03-02T15:54:56.468Z,5.05
2023-03-02T15:55:57.133Z,4.94
2023-03-02T15:56:56.499Z,5.17
2023-03-02T15:57:56.481Z,5.46
2023-03-02T15:58:56.460Z,5.26
2023-03-02T15:59:56.497Z,5.51
2023-03-02T16:00:56.530Z,5.24
2023-03-02T16:01:56.450Z,5.45
2023-03-02T16:02:56.565Z,5.04
2023-03-02T16:03:56.459Z,4.80
2023-03-02T16:04:56.637Z,5.62
2023-03-02T16:05:56.480Z,4.74
2023-03-02T16:06:56.461Z,4.97
2023-03-02T16:07:56.478Z,4.98
2023-03-02T16:08:56.470Z,4.91
2023-03-02T16:09:56.517Z,5.16
2023-03-02T16:10:56.554Z,5.03
2023-03-02T16:11:56.501Z,5.09
2023-03-02T16:12:56.531Z,5.50
2023-03-02T16:13:56.512Z,4.75
2023-03-02T16:14:56.512Z,5.30
2023-03-02T16:15:56.512Z,5.73
2023-03-02T16:16:56.597Z,5.24
2023-03-02T16:17:56.493Z,5.06
2023-03-02T16:18:56.533Z,4.53
2023-03-02T16:19:56.549Z,5.63
2023-03-02T16:20:56.539Z,5.73
2023-03-02T16:21:56.552Z,4.57
2023-03-02T16:22:56.536Z,4.76
2023-03-02T16:23:56.541Z,4.43
2023-03-02T16:24:56.571Z,4.79
2023-03-02T16:25:56.547Z,4.96
2023-03-02T16:26:56.588Z,4.81
2023-03-02T16:27:56.600Z,6.16
2023-03-02T16:28:56.603Z,5.07
2023-03-02T16:29:56.636Z,5.22
2023-03-02T16:30:56.623Z,4.72
2023-03-02T16:31:56.731Z,4.79
2023-03-02T16:32:56.628Z,5.18
2023-03-02T16:33:56.647Z,4.60
2023-03-02T16:34:56.650Z,4.91
2023-03-02T16:35:56.653Z,4.78
2023-03-02T16:36:56.701Z,4.97
2023-03-02T16:37:57.617Z,5.17
2023-03-02T16:38:56.662Z,4.62
2023-03-02T16:39:56.688Z,4.83
2023-03-02T16:40:57.260Z,4.62
2023-03-02T16:41:56.692Z,5.05
2023-03-02T16:42:56.702Z,4.40